Humphrey, Arkansas
Current Conditions -  °F | °C
As of 7:35 PM on Thursday 18 Dec 2014 (Local Time) from KSGT Reporting Station
Overcast Overcast  
Wind Chill: 39°   Ceiling: 2000
Heat Index: 43°   Visibility: NA
Dew Point: 39°   Wind: 6mph
Humidity: 87%   Direction: 10°N
Pressure: 30.23"   Gusts: NA
Location:  34.42°N, 91.71°W
Report Text: KSGT 190135Z 01005KT BKN020 OVC029 06/04 A3023 RMK AO1
Loading
Personal Weather Stations






























Interactive Weather Map New forecast layout! Learn more

10-Day Weather Forecast

Advertisements
Track Severe Weather on mobile